首页
METAR-TAF:

METAR-TAF

机场 :

L.F.韋德國際機場

百慕大, 百慕大

纬度: 32-22N, 经度: 064-41W, 海拔: 6米

当前天气观测

该预报发布于1小时和0分钟前的20:55 UTC
风速10节,风向
温度 22°C
湿度 57%
气压 1018 hPa
能见度10公里或以上
少量云层高于3600英尺
多云层高于30000英尺

METAR: TXKF 262055Z 35010KT 9999 FEW036 BKN300 22/13 Q1018

时间: 18:55 (21:55 UTC)

预报

该预报发布于4小时和24分钟前的17:31 UTC
预报有效从26日的 18点(UTC)到 27日的 18点(UTC)
风速11节,风向北转西北
能见度10公里或以上
少量云层高于3000英尺
多云层高于5000英尺
成为
从 27日的 03点(UTC)到 27日的 06点(UTC)
风速8节,风向西转西北

TAF: TXKF 261731Z 2618/2718 34011KT 9999 FEW030 BKN050 BECMG 2703/2706 29008KT

超过4000个机场的气象观测和天气预报(METAR&TAF报告)。

可查询的气象台以黄色和红色小点在地图上表示。

将鼠标移到小点上方,可查看气象台名称。

然后点击查看天气观测和预报。

如需切换地图:点击带黑十字的绿色按钮放大地图;点击带横线的绿色按钮缩小地图;或者点击绿色箭头查看邻近地区的地图。


METAR-TAF: